sensor_id;sensor_type;location;lat;lon;timestamp;P1;durP1;ratioP1;P2;durP2;ratioP2
5929;SDS011;2990;48.746;9.236;2023-08-12T00:02:09;1.10;;;1.10;;
5929;SDS011;2990;48.746;9.236;2023-08-12T00:04:35;1.15;;;1.15;;
5929;SDS011;2990;48.746;9.236;2023-08-12T00:07:01;1.00;;;1.00;;
5929;SDS011;2990;48.746;9.236;2023-08-12T00:09:26;1.30;;;1.30;;
5929;SDS011;2990;48.746;9.236;2023-08-12T00:11:52;1.23;;;1.23;;
5929;SDS011;2990;48.746;9.236;2023-08-12T00:14:17;1.27;;;1.27;;
5929;SDS011;2990;48.746;9.236;2023-08-12T00:16:43;1.30;;;1.30;;
5929;SDS011;2990;48.746;9.236;2023-08-12T00:19:08;1.20;;;1.20;;
5929;SDS011;2990;48.746;9.236;2023-08-12T00:21:34;0.93;;;0.93;;
5929;SDS011;2990;48.746;9.236;2023-08-12T00:23:59;1.25;;;1.25;;
5929;SDS011;2990;48.746;9.236;2023-08-12T00:26:25;0.93;;;0.93;;
5929;SDS011;2990;48.746;9.236;2023-08-12T00:28:51;1.45;;;1.45;;
5929;SDS011;2990;48.746;9.236;2023-08-12T00:31:17;1.27;;;1.27;;
5929;SDS011;2990;48.746;9.236;2023-08-12T00:33:43;1.20;;;1.20;;
5929;SDS011;2990;48.746;9.236;2023-08-12T00:36:08;1.13;;;1.13;;
5929;SDS011;2990;48.746;9.236;2023-08-12T00:38:34;1.48;;;1.48;;
5929;SDS011;2990;48.746;9.236;2023-08-12T00:40:59;1.30;;;1.30;;
5929;SDS011;2990;48.746;9.236;2023-08-12T00:43:25;1.63;;;1.40;;
5929;SDS011;2990;48.746;9.236;2023-08-12T00:45:50;1.30;;;1.30;;
5929;SDS011;2990;48.746;9.236;2023-08-12T00:48:16;1.35;;;1.35;;
5929;SDS011;2990;48.746;9.236;2023-08-12T00:50:43;1.40;;;1.40;;
5929;SDS011;2990;48.746;9.236;2023-08-12T00:53:09;1.38;;;1.35;;
5929;SDS011;2990;48.746;9.236;2023-08-12T00:55:37;1.38;;;1.38;;
5929;SDS011;2990;48.746;9.236;2023-08-12T00:58:03;1.35;;;1.35;;
5929;SDS011;2990;48.746;9.236;2023-08-12T01:00:30;1.55;;;1.55;;
5929;SDS011;2990;48.746;9.236;2023-08-12T01:02:56;1.23;;;1.23;;
5929;SDS011;2990;48.746;9.236;2023-08-12T01:05:22;1.20;;;1.20;;
5929;SDS011;2990;48.746;9.236;2023-08-12T01:07:48;1.05;;;1.05;;
5929;SDS011;2990;48.746;9.236;2023-08-12T01:10:14;1.23;;;1.23;;
5929;SDS011;2990;48.746;9.236;2023-08-12T01:12:44;1.40;;;1.40;;
5929;SDS011;2990;48.746;9.236;2023-08-12T01:15:20;1.45;;;1.45;;
5929;SDS011;2990;48.746;9.236;2023-08-12T01:17:49;1.70;;;1.70;;
5929;SDS011;2990;48.746;9.236;2023-08-12T01:20:17;1.52;;;1.52;;
5929;SDS011;2990;48.746;9.236;2023-08-12T01:22:49;1.52;;;1.52;;
5929;SDS011;2990;48.746;9.236;2023-08-12T01:25:21;1.42;;;1.42;;
5929;SDS011;2990;48.746;9.236;2023-08-12T01:27:46;1.60;;;1.60;;
5929;SDS011;2990;48.746;9.236;2023-08-12T01:30:12;1.15;;;1.15;;
5929;SDS011;2990;48.746;9.236;2023-08-12T01:32:42;1.38;;;1.38;;
5929;SDS011;2990;48.746;9.236;2023-08-12T01:35:17;1.25;;;1.25;;
5929;SDS011;2990;48.746;9.236;2023-08-12T01:37:47;1.38;;;1.38;;
5929;SDS011;2990;48.746;9.236;2023-08-12T01:40:15;1.42;;;1.42;;
5929;SDS011;2990;48.746;9.236;2023-08-12T01:42:43;1.15;;;1.15;;
5929;SDS011;2990;48.746;9.236;2023-08-12T01:45:09;1.42;;;1.42;;
5929;SDS011;2990;48.746;9.236;2023-08-12T01:47:35;1.48;;;1.48;;
5929;SDS011;2990;48.746;9.236;2023-08-12T01:50:01;1.83;;;1.75;;
5929;SDS011;2990;48.746;9.236;2023-08-12T01:52:27;1.40;;;1.40;;
5929;SDS011;2990;48.746;9.236;2023-08-12T01:54:54;1.35;;;1.35;;
5929;SDS011;2990;48.746;9.236;2023-08-12T01:57:19;1.38;;;1.38;;
5929;SDS011;2990;48.746;9.236;2023-08-12T01:59:45;1.50;;;1.50;;
5929;SDS011;2990;48.746;9.236;2023-08-12T02:02:10;1.45;;;1.45;;
5929;SDS011;2990;48.746;9.236;2023-08-12T02:04:36;1.80;;;1.80;;
5929;SDS011;2990;48.746;9.236;2023-08-12T02:07:03;1.33;;;1.33;;
5929;SDS011;2990;48.746;9.236;2023-08-12T02:09:29;1.75;;;1.75;;
5929;SDS011;2990;48.746;9.236;2023-08-12T02:11:55;1.73;;;1.73;;
5929;SDS011;2990;48.746;9.236;2023-08-12T02:14:21;1.58;;;1.58;;
5929;SDS011;2990;48.746;9.236;2023-08-12T02:16:46;1.70;;;1.60;;
5929;SDS011;2990;48.746;9.236;2023-08-12T02:19:12;1.73;;;1.73;;
5929;SDS011;2990;48.746;9.236;2023-08-12T02:21:37;1.30;;;1.30;;
5929;SDS011;2990;48.746;9.236;2023-08-12T02:24:03;1.50;;;1.50;;
5929;SDS011;2990;48.746;9.236;2023-08-12T02:26:29;1.70;;;1.70;;
5929;SDS011;2990;48.746;9.236;2023-08-12T02:28:55;1.40;;;1.40;;
5929;SDS011;2990;48.746;9.236;2023-08-12T02:31:21;1.50;;;1.50;;
5929;SDS011;2990;48.746;9.236;2023-08-12T02:33:46;1.58;;;1.48;;
5929;SDS011;2990;48.746;9.236;2023-08-12T02:36:12;1.55;;;1.55;;
5929;SDS011;2990;48.746;9.236;2023-08-12T02:38:37;2.00;;;1.90;;
5929;SDS011;2990;48.746;9.236;2023-08-12T02:41:03;1.50;;;1.50;;
5929;SDS011;2990;48.746;9.236;2023-08-12T02:43:28;1.50;;;1.50;;
5929;SDS011;2990;48.746;9.236;2023-08-12T02:45:54;1.17;;;1.17;;
5929;SDS011;2990;48.746;9.236;2023-08-12T02:48:19;1.65;;;1.65;;
5929;SDS011;2990;48.746;9.236;2023-08-12T02:50:45;1.90;;;1.90;;
5929;SDS011;2990;48.746;9.236;2023-08-12T02:53:11;1.60;;;1.52;;
5929;SDS011;2990;48.746;9.236;2023-08-12T02:55:37;1.63;;;1.63;;
5929;SDS011;2990;48.746;9.236;2023-08-12T02:58:03;1.73;;;1.73;;
5929;SDS011;2990;48.746;9.236;2023-08-12T03:00:29;1.60;;;1.60;;
5929;SDS011;2990;48.746;9.236;2023-08-12T03:02:55;1.48;;;1.48;;
5929;SDS011;2990;48.746;9.236;2023-08-12T03:05:21;1.55;;;1.55;;
5929;SDS011;2990;48.746;9.236;2023-08-12T03:07:47;1.83;;;1.83;;
5929;SDS011;2990;48.746;9.236;2023-08-12T03:10:12;1.95;;;1.95;;
5929;SDS011;2990;48.746;9.236;2023-08-12T03:12:38;1.50;;;1.50;;
5929;SDS011;2990;48.746;9.236;2023-08-12T03:15:05;1.67;;;1.40;;
5929;SDS011;2990;48.746;9.236;2023-08-12T03:17:31;1.83;;;1.83;;
5929;SDS011;2990;48.746;9.236;2023-08-12T03:19:57;1.90;;;1.83;;
5929;SDS011;2990;48.746;9.236;2023-08-12T03:22:29;1.80;;;1.80;;
5929;SDS011;2990;48.746;9.236;2023-08-12T03:24:54;1.60;;;1.60;;
5929;SDS011;2990;48.746;9.236;2023-08-12T03:27:20;1.60;;;1.60;;
5929;SDS011;2990;48.746;9.236;2023-08-12T03:29:45;4.13;;;3.83;;
5929;SDS011;2990;48.746;9.236;2023-08-12T03:32:11;7.85;;;5.32;;
5929;SDS011;2990;48.746;9.236;2023-08-12T03:34:37;11.32;;;7.65;;
5929;SDS011;2990;48.746;9.236;2023-08-12T03:37:02;14.50;;;8.25;;
5929;SDS011;2990;48.746;9.236;2023-08-12T03:39:28;13.00;;;7.40;;
5929;SDS011;2990;48.746;9.236;2023-08-12T03:41:54;6.50;;;5.95;;
5929;SDS011;2990;48.746;9.236;2023-08-12T03:44:20;2.90;;;2.63;;
5929;SDS011;2990;48.746;9.236;2023-08-12T03:46:45;2.17;;;2.13;;
5929;SDS011;2990;48.746;9.236;2023-08-12T03:49:11;2.35;;;2.15;;
5929;SDS011;2990;48.746;9.236;2023-08-12T03:51:36;1.40;;;1.40;;
5929;SDS011;2990;48.746;9.236;2023-08-12T03:54:02;1.25;;;1.25;;
5929;SDS011;2990;48.746;9.236;2023-08-12T03:56:29;1.90;;;1.80;;
5929;SDS011;2990;48.746;9.236;2023-08-12T03:58:54;1.67;;;1.67;;
5929;SDS011;2990;48.746;9.236;2023-08-12T04:01:20;1.38;;;1.38;;
5929;SDS011;2990;48.746;9.236;2023-08-12T04:03:46;1.50;;;1.40;;
5929;SDS011;2990;48.746;9.236;2023-08-12T04:06:11;1.40;;;1.40;;
5929;SDS011;2990;48.746;9.236;2023-08-12T04:08:37;1.63;;;1.63;;
5929;SDS011;2990;48.746;9.236;2023-08-12T04:11:03;1.42;;;1.42;;
5929;SDS011;2990;48.746;9.236;2023-08-12T04:13:29;1.48;;;1.48;;
5929;SDS011;2990;48.746;9.236;2023-08-12T04:15:54;1.45;;;1.45;;
5929;SDS011;2990;48.746;9.236;2023-08-12T04:18:20;1.40;;;1.40;;
5929;SDS011;2990;48.746;9.236;2023-08-12T04:20:46;1.40;;;1.40;;
5929;SDS011;2990;48.746;9.236;2023-08-12T04:23:13;1.33;;;1.33;;
5929;SDS011;2990;48.746;9.236;2023-08-12T04:25:39;2.08;;;2.03;;
5929;SDS011;2990;48.746;9.236;2023-08-12T04:28:05;1.75;;;1.70;;
5929;SDS011;2990;48.746;9.236;2023-08-12T04:30:30;1.48;;;1.48;;
5929;SDS011;2990;48.746;9.236;2023-08-12T04:32:56;1.67;;;1.67;;
5929;SDS011;2990;48.746;9.236;2023-08-12T04:35:21;1.50;;;1.50;;
5929;SDS011;2990;48.746;9.236;2023-08-12T04:37:47;1.52;;;1.52;;
5929;SDS011;2990;48.746;9.236;2023-08-12T04:40:12;1.50;;;1.50;;
5929;SDS011;2990;48.746;9.236;2023-08-12T04:42:38;1.58;;;1.58;;
5929;SDS011;2990;48.746;9.236;2023-08-12T04:45:04;1.50;;;1.50;;
5929;SDS011;2990;48.746;9.236;2023-08-12T04:47:30;1.70;;;1.70;;
5929;SDS011;2990;48.746;9.236;2023-08-12T04:49:55;1.58;;;1.58;;
5929;SDS011;2990;48.746;9.236;2023-08-12T04:52:21;1.55;;;1.55;;
5929;SDS011;2990;48.746;9.236;2023-08-12T04:54:46;1.25;;;1.25;;
5929;SDS011;2990;48.746;9.236;2023-08-12T04:57:12;1.50;;;1.50;;
5929;SDS011;2990;48.746;9.236;2023-08-12T04:59:37;1.40;;;1.40;;
5929;SDS011;2990;48.746;9.236;2023-08-12T05:02:03;1.63;;;1.63;;
5929;SDS011;2990;48.746;9.236;2023-08-12T05:04:28;1.42;;;1.42;;
5929;SDS011;2990;48.746;9.236;2023-08-12T05:06:54;1.60;;;1.60;;
5929;SDS011;2990;48.746;9.236;2023-08-12T05:09:20;1.55;;;1.55;;
5929;SDS011;2990;48.746;9.236;2023-08-12T05:11:45;1.70;;;1.70;;
5929;SDS011;2990;48.746;9.236;2023-08-12T05:14:11;1.40;;;1.40;;
5929;SDS011;2990;48.746;9.236;2023-08-12T05:16:36;1.38;;;1.38;;
5929;SDS011;2990;48.746;9.236;2023-08-12T05:19:02;1.73;;;1.63;;
5929;SDS011;2990;48.746;9.236;2023-08-12T05:21:27;1.40;;;1.40;;
5929;SDS011;2990;48.746;9.236;2023-08-12T05:23:53;1.50;;;1.50;;
5929;SDS011;2990;48.746;9.236;2023-08-12T05:26:18;1.10;;;1.10;;
5929;SDS011;2990;48.746;9.236;2023-08-12T05:28:45;1.63;;;1.63;;
5929;SDS011;2990;48.746;9.236;2023-08-12T05:31:11;1.27;;;1.27;;
5929;SDS011;2990;48.746;9.236;2023-08-12T05:33:37;1.33;;;1.33;;
5929;SDS011;2990;48.746;9.236;2023-08-12T05:36:03;1.40;;;1.40;;
5929;SDS011;2990;48.746;9.236;2023-08-12T05:38:28;1.58;;;1.58;;
5929;SDS011;2990;48.746;9.236;2023-08-12T05:40:54;1.50;;;1.50;;
5929;SDS011;2990;48.746;9.236;2023-08-12T05:43:20;1.50;;;1.50;;
5929;SDS011;2990;48.746;9.236;2023-08-12T05:45:45;1.85;;;1.85;;
5929;SDS011;2990;48.746;9.236;2023-08-12T05:48:11;1.60;;;1.60;;
5929;SDS011;2990;48.746;9.236;2023-08-12T05:50:36;1.65;;;1.65;;
5929;SDS011;2990;48.746;9.236;2023-08-12T05:53:02;1.55;;;1.55;;
5929;SDS011;2990;48.746;9.236;2023-08-12T05:55:27;1.70;;;1.70;;
5929;SDS011;2990;48.746;9.236;2023-08-12T05:57:53;1.48;;;1.48;;
5929;SDS011;2990;48.746;9.236;2023-08-12T06:00:19;2.67;;;2.58;;
5929;SDS011;2990;48.746;9.236;2023-08-12T06:02:44;1.90;;;1.90;;
5929;SDS011;2990;48.746;9.236;2023-08-12T06:05:10;1.70;;;1.70;;
5929;SDS011;2990;48.746;9.236;2023-08-12T06:07:35;1.63;;;1.63;;
5929;SDS011;2990;48.746;9.236;2023-08-12T06:10:01;1.67;;;1.67;;
5929;SDS011;2990;48.746;9.236;2023-08-12T06:12:27;1.42;;;1.42;;
5929;SDS011;2990;48.746;9.236;2023-08-12T06:14:53;1.42;;;1.42;;
5929;SDS011;2990;48.746;9.236;2023-08-12T06:17:18;1.75;;;1.75;;
5929;SDS011;2990;48.746;9.236;2023-08-12T06:19:44;1.90;;;1.75;;
5929;SDS011;2990;48.746;9.236;2023-08-12T06:22:09;1.60;;;1.60;;
5929;SDS011;2990;48.746;9.236;2023-08-12T06:24:35;1.88;;;1.83;;
5929;SDS011;2990;48.746;9.236;2023-08-12T06:27:00;1.27;;;1.27;;
5929;SDS011;2990;48.746;9.236;2023-08-12T06:29:26;1.25;;;1.25;;
5929;SDS011;2990;48.746;9.236;2023-08-12T06:31:52;1.40;;;1.40;;
5929;SDS011;2990;48.746;9.236;2023-08-12T06:34:18;1.70;;;1.70;;
5929;SDS011;2990;48.746;9.236;2023-08-12T06:36:43;1.90;;;1.65;;
5929;SDS011;2990;48.746;9.236;2023-08-12T06:39:09;1.55;;;1.55;;
5929;SDS011;2990;48.746;9.236;2023-08-12T06:41:34;1.48;;;1.48;;
5929;SDS011;2990;48.746;9.236;2023-08-12T06:44:00;1.95;;;1.95;;
5929;SDS011;2990;48.746;9.236;2023-08-12T06:46:26;1.65;;;1.60;;
5929;SDS011;2990;48.746;9.236;2023-08-12T06:48:51;2.13;;;2.03;;
5929;SDS011;2990;48.746;9.236;2023-08-12T06:51:17;1.63;;;1.63;;
5929;SDS011;2990;48.746;9.236;2023-08-12T06:53:42;1.70;;;1.70;;
5929;SDS011;2990;48.746;9.236;2023-08-12T06:56:08;1.55;;;1.55;;
5929;SDS011;2990;48.746;9.236;2023-08-12T06:58:34;1.70;;;1.70;;
5929;SDS011;2990;48.746;9.236;2023-08-12T07:00:59;1.73;;;1.73;;
5929;SDS011;2990;48.746;9.236;2023-08-12T07:03:25;2.13;;;2.13;;
5929;SDS011;2990;48.746;9.236;2023-08-12T07:05:52;1.70;;;1.70;;
5929;SDS011;2990;48.746;9.236;2023-08-12T07:08:18;1.67;;;1.67;;
5929;SDS011;2990;48.746;9.236;2023-08-12T07:10:43;1.75;;;1.75;;
5929;SDS011;2990;48.746;9.236;2023-08-12T07:13:09;1.88;;;1.88;;
5929;SDS011;2990;48.746;9.236;2023-08-12T07:15:34;1.50;;;1.50;;
5929;SDS011;2990;48.746;9.236;2023-08-12T07:18:00;1.85;;;1.85;;
5929;SDS011;2990;48.746;9.236;2023-08-12T07:20:38;1.67;;;1.63;;
5929;SDS011;2990;48.746;9.236;2023-08-12T07:23:08;1.42;;;1.42;;
5929;SDS011;2990;48.746;9.236;2023-08-12T07:25:34;1.38;;;1.38;;
5929;SDS011;2990;48.746;9.236;2023-08-12T07:27:59;1.80;;;1.80;;
5929;SDS011;2990;48.746;9.236;2023-08-12T07:30:25;1.80;;;1.75;;
5929;SDS011;2990;48.746;9.236;2023-08-12T07:32:51;1.38;;;1.38;;
5929;SDS011;2990;48.746;9.236;2023-08-12T07:35:16;1.65;;;1.65;;
5929;SDS011;2990;48.746;9.236;2023-08-12T07:37:42;1.48;;;1.38;;
5929;SDS011;2990;48.746;9.236;2023-08-12T07:40:07;1.33;;;1.33;;
5929;SDS011;2990;48.746;9.236;2023-08-12T07:42:34;1.70;;;1.70;;
5929;SDS011;2990;48.746;9.236;2023-08-12T07:44:59;1.58;;;1.58;;
5929;SDS011;2990;48.746;9.236;2023-08-12T07:47:25;1.75;;;1.75;;
5929;SDS011;2990;48.746;9.236;2023-08-12T07:49:50;1.40;;;1.40;;
5929;SDS011;2990;48.746;9.236;2023-08-12T07:52:16;1.40;;;1.40;;
5929;SDS011;2990;48.746;9.236;2023-08-12T07:54:41;1.42;;;1.42;;
5929;SDS011;2990;48.746;9.236;2023-08-12T07:57:07;1.67;;;1.67;;
5929;SDS011;2990;48.746;9.236;2023-08-12T07:59:32;1.75;;;1.75;;
5929;SDS011;2990;48.746;9.236;2023-08-12T08:01:58;1.10;;;1.10;;
5929;SDS011;2990;48.746;9.236;2023-08-12T08:04:24;2.05;;;1.95;;
5929;SDS011;2990;48.746;9.236;2023-08-12T08:06:49;1.70;;;1.70;;
5929;SDS011;2990;48.746;9.236;2023-08-12T08:09:15;1.45;;;1.45;;
5929;SDS011;2990;48.746;9.236;2023-08-12T08:11:40;1.40;;;1.40;;
5929;SDS011;2990;48.746;9.236;2023-08-12T08:14:06;1.58;;;1.58;;
5929;SDS011;2990;48.746;9.236;2023-08-12T08:16:31;1.48;;;1.48;;
5929;SDS011;2990;48.746;9.236;2023-08-12T08:18:57;1.17;;;1.17;;
5929;SDS011;2990;48.746;9.236;2023-08-12T08:21:22;1.70;;;1.70;;
5929;SDS011;2990;48.746;9.236;2023-08-12T08:23:48;1.45;;;1.45;;
5929;SDS011;2990;48.746;9.236;2023-08-12T08:26:13;1.52;;;1.52;;
5929;SDS011;2990;48.746;9.236;2023-08-12T08:28:40;1.70;;;1.70;;
5929;SDS011;2990;48.746;9.236;2023-08-12T08:31:06;1.55;;;1.55;;
5929;SDS011;2990;48.746;9.236;2023-08-12T08:33:32;1.42;;;1.42;;
5929;SDS011;2990;48.746;9.236;2023-08-12T08:35:57;1.58;;;1.58;;
5929;SDS011;2990;48.746;9.236;2023-08-12T08:38:23;1.10;;;1.10;;
5929;SDS011;2990;48.746;9.236;2023-08-12T08:40:49;1.33;;;1.33;;
5929;SDS011;2990;48.746;9.236;2023-08-12T08:43:15;1.30;;;1.30;;
5929;SDS011;2990;48.746;9.236;2023-08-12T08:45:51;1.08;;;1.08;;
5929;SDS011;2990;48.746;9.236;2023-08-12T08:48:19;1.60;;;1.60;;
5929;SDS011;2990;48.746;9.236;2023-08-12T08:50:45;1.30;;;1.30;;
5929;SDS011;2990;48.746;9.236;2023-08-12T08:53:13;1.20;;;1.20;;
5929;SDS011;2990;48.746;9.236;2023-08-12T08:55:41;1.45;;;1.45;;
5929;SDS011;2990;48.746;9.236;2023-08-12T08:58:06;1.67;;;1.67;;
5929;SDS011;2990;48.746;9.236;2023-08-12T09:00:32;1.35;;;1.35;;
5929;SDS011;2990;48.746;9.236;2023-08-12T09:02:58;1.20;;;1.20;;
5929;SDS011;2990;48.746;9.236;2023-08-12T09:05:24;1.33;;;1.33;;
5929;SDS011;2990;48.746;9.236;2023-08-12T09:07:52;1.30;;;1.30;;
5929;SDS011;2990;48.746;9.236;2023-08-12T09:10:20;1.23;;;1.23;;
5929;SDS011;2990;48.746;9.236;2023-08-12T09:12:46;1.40;;;1.40;;
5929;SDS011;2990;48.746;9.236;2023-08-12T09:15:12;1.35;;;1.35;;
5929;SDS011;2990;48.746;9.236;2023-08-12T09:17:38;1.30;;;1.30;;
5929;SDS011;2990;48.746;9.236;2023-08-12T09:20:04;1.30;;;1.30;;
5929;SDS011;2990;48.746;9.236;2023-08-12T09:22:36;1.38;;;1.38;;
5929;SDS011;2990;48.746;9.236;2023-08-12T09:25:02;1.15;;;1.15;;
5929;SDS011;2990;48.746;9.236;2023-08-12T09:27:30;0.93;;;0.93;;
5929;SDS011;2990;48.746;9.236;2023-08-12T09:29:56;1.10;;;1.10;;
5929;SDS011;2990;48.746;9.236;2023-08-12T09:32:22;1.20;;;1.20;;
5929;SDS011;2990;48.746;9.236;2023-08-12T09:34:49;0.98;;;0.98;;
5929;SDS011;2990;48.746;9.236;2023-08-12T09:37:17;0.88;;;0.88;;
5929;SDS011;2990;48.746;9.236;2023-08-12T09:39:43;1.05;;;1.05;;
5929;SDS011;2990;48.746;9.236;2023-08-12T09:42:10;1.15;;;1.15;;
5929;SDS011;2990;48.746;9.236;2023-08-12T09:44:36;0.80;;;0.80;;
5929;SDS011;2990;48.746;9.236;2023-08-12T09:47:03;0.88;;;0.88;;
5929;SDS011;2990;48.746;9.236;2023-08-12T09:49:29;0.75;;;0.75;;
5929;SDS011;2990;48.746;9.236;2023-08-12T09:51:55;0.70;;;0.70;;
5929;SDS011;2990;48.746;9.236;2023-08-12T09:54:21;0.70;;;0.70;;
5929;SDS011;2990;48.746;9.236;2023-08-12T09:56:48;0.60;;;0.60;;
5929;SDS011;2990;48.746;9.236;2023-08-12T09:59:18;0.63;;;0.63;;
5929;SDS011;2990;48.746;9.236;2023-08-12T10:01:47;0.70;;;0.70;;
5929;SDS011;2990;48.746;9.236;2023-08-12T10:04:16;0.77;;;0.77;;
5929;SDS011;2990;48.746;9.236;2023-08-12T10:06:43;0.80;;;0.80;;
5929;SDS011;2990;48.746;9.236;2023-08-12T10:09:10;0.63;;;0.63;;
5929;SDS011;2990;48.746;9.236;2023-08-12T10:11:37;0.63;;;0.63;;
5929;SDS011;2990;48.746;9.236;2023-08-12T10:14:03;0.70;;;0.70;;
5929;SDS011;2990;48.746;9.236;2023-08-12T10:16:29;0.60;;;0.60;;
5929;SDS011;2990;48.746;9.236;2023-08-12T10:18:56;0.75;;;0.75;;
5929;SDS011;2990;48.746;9.236;2023-08-12T10:21:23;0.70;;;0.70;;
5929;SDS011;2990;48.746;9.236;2023-08-12T10:23:50;0.70;;;0.70;;
5929;SDS011;2990;48.746;9.236;2023-08-12T10:26:17;0.60;;;0.60;;
5929;SDS011;2990;48.746;9.236;2023-08-12T10:28:43;0.70;;;0.70;;
5929;SDS011;2990;48.746;9.236;2023-08-12T10:31:10;0.60;;;0.60;;
5929;SDS011;2990;48.746;9.236;2023-08-12T10:33:40;0.70;;;0.70;;
5929;SDS011;2990;48.746;9.236;2023-08-12T10:36:06;0.88;;;0.88;;
5929;SDS011;2990;48.746;9.236;2023-08-12T10:38:33;0.82;;;0.82;;
5929;SDS011;2990;48.746;9.236;2023-08-12T10:41:17;1.10;;;1.10;;
5929;SDS011;2990;48.746;9.236;2023-08-12T10:43:51;0.70;;;0.70;;
5929;SDS011;2990;48.746;9.236;2023-08-12T10:46:21;1.20;;;1.20;;
5929;SDS011;2990;48.746;9.236;2023-08-12T10:48:57;0.70;;;0.70;;
5929;SDS011;2990;48.746;9.236;2023-08-12T10:51:45;1.08;;;1.08;;
5929;SDS011;2990;48.746;9.236;2023-08-12T10:54:28;0.90;;;0.90;;
5929;SDS011;2990;48.746;9.236;2023-08-12T10:59:47;0.70;;;0.70;;
5929;SDS011;2990;48.746;9.236;2023-08-12T11:02:30;0.60;;;0.60;;
5929;SDS011;2990;48.746;9.236;2023-08-12T11:05:11;0.73;;;0.73;;
5929;SDS011;2990;48.746;9.236;2023-08-12T11:07:40;0.80;;;0.80;;
5929;SDS011;2990;48.746;9.236;2023-08-12T11:10:10;0.90;;;0.90;;
5929;SDS011;2990;48.746;9.236;2023-08-12T11:15:18;0.70;;;0.70;;
5929;SDS011;2990;48.746;9.236;2023-08-12T11:17:53;0.70;;;0.70;;
5929;SDS011;2990;48.746;9.236;2023-08-12T11:20:19;1.17;;;1.17;;
5929;SDS011;2990;48.746;9.236;2023-08-12T11:22:46;0.88;;;0.88;;
5929;SDS011;2990;48.746;9.236;2023-08-12T11:25:12;0.93;;;0.93;;
5929;SDS011;2990;48.746;9.236;2023-08-12T11:27:40;1.10;;;1.10;;
5929;SDS011;2990;48.746;9.236;2023-08-12T11:30:07;0.93;;;0.93;;
5929;SDS011;2990;48.746;9.236;2023-08-12T11:32:33;1.00;;;1.00;;
5929;SDS011;2990;48.746;9.236;2023-08-12T11:34:59;0.77;;;0.77;;
5929;SDS011;2990;48.746;9.236;2023-08-12T11:37:25;0.80;;;0.80;;
5929;SDS011;2990;48.746;9.236;2023-08-12T11:39:52;0.70;;;0.70;;
5929;SDS011;2990;48.746;9.236;2023-08-12T11:42:17;1.50;;;0.93;;
5929;SDS011;2990;48.746;9.236;2023-08-12T11:44:45;1.00;;;1.00;;
5929;SDS011;2990;48.746;9.236;2023-08-12T11:47:11;0.70;;;0.70;;
5929;SDS011;2990;48.746;9.236;2023-08-12T11:49:38;0.93;;;0.93;;
5929;SDS011;2990;48.746;9.236;2023-08-12T11:52:08;0.90;;;0.90;;
5929;SDS011;2990;48.746;9.236;2023-08-12T11:54:35;1.00;;;1.00;;
5929;SDS011;2990;48.746;9.236;2023-08-12T11:57:00;0.90;;;0.90;;
5929;SDS011;2990;48.746;9.236;2023-08-12T11:59:26;0.80;;;0.80;;
5929;SDS011;2990;48.746;9.236;2023-08-12T12:01:52;0.93;;;0.93;;
5929;SDS011;2990;48.746;9.236;2023-08-12T12:04:20;0.65;;;0.65;;
5929;SDS011;2990;48.746;9.236;2023-08-12T12:06:46;0.68;;;0.68;;
5929;SDS011;2990;48.746;9.236;2023-08-12T12:09:15;0.60;;;0.60;;
5929;SDS011;2990;48.746;9.236;2023-08-12T12:11:54;0.55;;;0.55;;
5929;SDS011;2990;48.746;9.236;2023-08-12T12:14:20;0.47;;;0.47;;
5929;SDS011;2990;48.746;9.236;2023-08-12T12:19:32;0.60;;;0.60;;
5929;SDS011;2990;48.746;9.236;2023-08-12T12:22:01;0.88;;;0.88;;
5929;SDS011;2990;48.746;9.236;2023-08-12T12:27:45;1.25;;;1.25;;
5929;SDS011;2990;48.746;9.236;2023-08-12T12:30:56;1.17;;;1.17;;
5929;SDS011;2990;48.746;9.236;2023-08-12T12:33:05;1.40;;;1.40;;
5929;SDS011;2990;48.746;9.236;2023-08-12T12:35:35;1.10;;;1.10;;
5929;SDS011;2990;48.746;9.236;2023-08-12T12:38:00;1.00;;;1.00;;
5929;SDS011;2990;48.746;9.236;2023-08-12T12:40:26;1.10;;;1.10;;
5929;SDS011;2990;48.746;9.236;2023-08-12T12:42:51;1.02;;;1.02;;
5929;SDS011;2990;48.746;9.236;2023-08-12T12:45:17;1.20;;;1.20;;
5929;SDS011;2990;48.746;9.236;2023-08-12T12:47:43;1.10;;;1.10;;
5929;SDS011;2990;48.746;9.236;2023-08-12T12:50:08;1.10;;;1.10;;
5929;SDS011;2990;48.746;9.236;2023-08-12T12:53:02;1.30;;;1.30;;
5929;SDS011;2990;48.746;9.236;2023-08-12T13:25:58;2.45;;;1.63;;
5929;SDS011;2990;48.746;9.236;2023-08-12T13:35:20;1.60;;;1.60;;
5929;SDS011;2990;48.746;9.236;2023-08-12T13:37:49;1.58;;;1.58;;
5929;SDS011;2990;48.746;9.236;2023-08-12T13:40:16;1.60;;;1.60;;
5929;SDS011;2990;48.746;9.236;2023-08-12T13:43:20;1.20;;;1.20;;
5929;SDS011;2990;48.746;9.236;2023-08-12T13:55:55;1.90;;;1.80;;
5929;SDS011;2990;48.746;9.236;2023-08-12T13:58:20;1.30;;;1.30;;
5929;SDS011;2990;48.746;9.236;2023-08-12T14:03:33;2.05;;;1.17;;
5929;SDS011;2990;48.746;9.236;2023-08-12T14:06:00;0.77;;;0.73;;
5929;SDS011;2990;48.746;9.236;2023-08-12T14:08:26;1.60;;;1.50;;
5929;SDS011;2990;48.746;9.236;2023-08-12T14:10:51;1.10;;;1.10;;
5929;SDS011;2990;48.746;9.236;2023-08-12T14:13:17;0.80;;;0.80;;
5929;SDS011;2990;48.746;9.236;2023-08-12T14:15:42;0.68;;;0.68;;
5929;SDS011;2990;48.746;9.236;2023-08-12T14:18:08;1.00;;;1.00;;
5929;SDS011;2990;48.746;9.236;2023-08-12T14:20:34;0.88;;;0.88;;
5929;SDS011;2990;48.746;9.236;2023-08-12T14:22:59;0.70;;;0.70;;
5929;SDS011;2990;48.746;9.236;2023-08-12T14:25:25;1.10;;;1.10;;
5929;SDS011;2990;48.746;9.236;2023-08-12T14:27:50;3.70;;;1.40;;
5929;SDS011;2990;48.746;9.236;2023-08-12T14:30:17;0.85;;;0.85;;
5929;SDS011;2990;48.746;9.236;2023-08-12T14:32:44;0.90;;;0.90;;
5929;SDS011;2990;48.746;9.236;2023-08-12T14:35:10;0.80;;;0.80;;
5929;SDS011;2990;48.746;9.236;2023-08-12T14:37:35;0.63;;;0.63;;
5929;SDS011;2990;48.746;9.236;2023-08-12T14:40:01;0.68;;;0.68;;
5929;SDS011;2990;48.746;9.236;2023-08-12T14:42:27;0.70;;;0.70;;
5929;SDS011;2990;48.746;9.236;2023-08-12T14:44:53;1.65;;;1.48;;
5929;SDS011;2990;48.746;9.236;2023-08-12T14:47:19;0.98;;;0.98;;
5929;SDS011;2990;48.746;9.236;2023-08-12T14:49:45;0.70;;;0.70;;
5929;SDS011;2990;48.746;9.236;2023-08-12T14:52:15;0.60;;;0.60;;
5929;SDS011;2990;48.746;9.236;2023-08-12T14:54:41;0.70;;;0.70;;
5929;SDS011;2990;48.746;9.236;2023-08-12T14:57:07;0.60;;;0.60;;
5929;SDS011;2990;48.746;9.236;2023-08-12T14:59:35;0.82;;;0.73;;
5929;SDS011;2990;48.746;9.236;2023-08-12T15:02:01;0.50;;;0.50;;
5929;SDS011;2990;48.746;9.236;2023-08-12T15:04:27;0.60;;;0.60;;
5929;SDS011;2990;48.746;9.236;2023-08-12T15:06:53;0.50;;;0.50;;
5929;SDS011;2990;48.746;9.236;2023-08-12T15:09:18;0.60;;;0.60;;
5929;SDS011;2990;48.746;9.236;2023-08-12T15:11:44;0.60;;;0.60;;
5929;SDS011;2990;48.746;9.236;2023-08-12T15:14:09;0.40;;;0.40;;
5929;SDS011;2990;48.746;9.236;2023-08-12T15:16:35;0.57;;;0.45;;
5929;SDS011;2990;48.746;9.236;2023-08-12T15:19:01;0.30;;;0.30;;
5929;SDS011;2990;48.746;9.236;2023-08-12T15:21:27;0.60;;;0.60;;
5929;SDS011;2990;48.746;9.236;2023-08-12T15:23:53;0.57;;;0.57;;
5929;SDS011;2990;48.746;9.236;2023-08-12T15:26:18;0.40;;;0.40;;
5929;SDS011;2990;48.746;9.236;2023-08-12T15:28:44;0.55;;;0.55;;
5929;SDS011;2990;48.746;9.236;2023-08-12T15:31:11;1.38;;;0.55;;
5929;SDS011;2990;48.746;9.236;2023-08-12T15:33:39;0.50;;;0.50;;
5929;SDS011;2990;48.746;9.236;2023-08-12T15:36:05;0.50;;;0.50;;
5929;SDS011;2990;48.746;9.236;2023-08-12T15:38:31;0.80;;;0.45;;
5929;SDS011;2990;48.746;9.236;2023-08-12T15:40:58;0.60;;;0.45;;
5929;SDS011;2990;48.746;9.236;2023-08-12T15:43:24;0.50;;;0.50;;
5929;SDS011;2990;48.746;9.236;2023-08-12T15:45:50;0.52;;;0.52;;
5929;SDS011;2990;48.746;9.236;2023-08-12T15:48:16;0.70;;;0.70;;
5929;SDS011;2990;48.746;9.236;2023-08-12T15:50:42;0.60;;;0.60;;
5929;SDS011;2990;48.746;9.236;2023-08-12T15:53:09;0.50;;;0.50;;
5929;SDS011;2990;48.746;9.236;2023-08-12T15:55:34;0.60;;;0.60;;
5929;SDS011;2990;48.746;9.236;2023-08-12T15:58:00;0.80;;;0.80;;
5929;SDS011;2990;48.746;9.236;2023-08-12T16:00:26;0.60;;;0.60;;
5929;SDS011;2990;48.746;9.236;2023-08-12T16:02:51;0.80;;;0.80;;
5929;SDS011;2990;48.746;9.236;2023-08-12T16:05:17;0.60;;;0.60;;
5929;SDS011;2990;48.746;9.236;2023-08-12T16:07:42;0.60;;;0.60;;
5929;SDS011;2990;48.746;9.236;2023-08-12T16:10:08;0.40;;;0.40;;
5929;SDS011;2990;48.746;9.236;2023-08-12T16:12:34;0.50;;;0.50;;
5929;SDS011;2990;48.746;9.236;2023-08-12T16:15:00;0.40;;;0.40;;